Time;durP1;ratioP1;P1;durP2;ratioP2;P2;SDS_P1;SDS_P2;PMS_P1;PMS_P2;Temp;Humidity;BMP_temperature;BMP_pressure;BME280_temperature;BME280_humidity;BME280_pressure;Samples;Min_cycle;Max_cycle;Signal;HPM_P1;HPM_P2
2022/03/15 00:01:12;;;;;;;38.15;21.50;;;;;;;-0.69;84.05;101476.62;1760489;81;21196;-76
2022/03/15 00:04:18;;;;;;;41.20;23.98;;;;;;;-0.69;84.04;101464.52;1760460;81;21714;-82
2022/03/15 00:07:24;;;;;;;33.30;20.85;;;;;;;-0.71;84.17;101470.42;1760497;81;21220;-76
2022/03/15 00:10:30;;;;;;;41.08;24.35;;;;;;;-0.73;84.23;101470.99;1760508;81;21188;-76
2022/03/15 00:13:39;;;;;;;35.55;20.35;;;;;;;-0.74;84.24;101465.23;1760556;81;21160;-81
2022/03/15 00:16:42;;;;;;;37.00;21.30;;;;;;;-0.75;84.25;101462.59;1759418;81;21200;-82
2022/03/15 00:19:48;;;;;;;38.98;23.45;;;;;;;-0.80;84.25;101455.66;1752723;80;21140;-83
2022/03/15 00:22:59;;;;;;;38.67;22.30;;;;;;;-0.87;84.36;101452.87;1729096;83;21208;-82
2022/03/15 00:26:06;;;;;;;34.92;21.25;;;;;;;-0.92;84.46;101456.25;1729065;81;22157;-76
2022/03/15 00:29:11;;;;;;;33.45;19.70;;;;;;;-1.01;84.61;101449.98;1729121;83;21172;-83
2022/03/15 00:32:19;;;;;;;40.23;23.52;;;;;;;-1.08;84.78;101444.53;1729099;82;21184;-76
2022/03/15 00:35:24;;;;;;;36.95;20.70;;;;;;;-1.16;84.98;101444.02;1729059;81;21163;-76
2022/03/15 00:38:29;;;;;;;38.20;21.37;;;;;;;-1.26;85.21;101441.38;1728949;83;21159;-76
2022/03/15 00:41:35;;;;;;;34.08;18.02;;;;;;;-1.36;85.48;101443.16;1728993;83;21787;-82
2022/03/15 00:44:40;;;;;;;34.27;21.48;;;;;;;-1.44;85.78;101439.96;1728997;83;21168;-76
2022/03/15 00:47:47;;;;;;;31.60;19.35;;;;;;;-1.51;86.00;101431.78;1728808;83;21776;-76
2022/03/15 00:50:52;;;;;;;34.83;20.57;;;;;;;-1.57;86.26;101429.39;1776974;80;21689;-81
2022/03/15 00:53:57;;;;;;;36.63;21.30;;;;;;;-1.64;86.52;101427.95;1796218;80;21184;-77
2022/03/15 00:57:03;;;;;;;36.58;22.60;;;;;;;-1.70;86.80;101420.17;1795746;80;21737;-82
2022/03/15 01:00:12;;;;;;;37.33;22.62;;;;;;;-1.77;87.02;101420.07;1796359;80;21152;-82
2022/03/15 01:03:19;;;;;;;34.35;22.17;;;;;;;-1.84;87.32;101416.30;1796374;80;21753;-82
2022/03/15 01:06:24;;;;;;;35.43;21.77;;;;;;;-1.89;87.57;101409.42;1796307;80;21184;-75
2022/03/15 01:09:31;;;;;;;34.73;21.20;;;;;;;-1.94;87.78;101405.61;1796534;80;21715;-81
2022/03/15 01:12:37;;;;;;;35.00;20.40;;;;;;;-1.98;87.99;101400.45;1796645;80;21243;-82
2022/03/15 01:15:44;;;;;;;36.33;22.05;;;;;;;-2.04;88.23;101392.69;1796311;80;21219;-76
2022/03/15 01:18:43;;;;;;;34.20;20.27;;;;;;;-2.09;88.47;101392.42;1796112;80;21764;-76
2022/03/15 01:21:50;;;;;;;36.50;21.70;;;;;;;-2.13;88.53;101388.61;1796188;80;21632;-76
2022/03/15 01:24:56;;;;;;;37.95;21.37;;;;;;;-2.16;88.62;101385.62;1796355;80;21148;-77
2022/03/15 01:28:01;;;;;;;36.63;20.10;;;;;;;-2.22;88.73;101383.66;1794014;80;21172;-82
2022/03/15 01:31:08;;;;;;;31.55;18.65;;;;;;;-2.26;88.91;101387.41;1794713;80;21153;-77
2022/03/15 01:34:14;;;;;;;38.50;20.82;;;;;;;-2.28;89.07;101385.28;1793400;80;21530;-76
2022/03/15 01:37:21;;;;;;;41.77;22.52;;;;;;;-2.32;89.19;101390.77;1756508;81;22092;-83
2022/03/15 01:40:33;;;;;;;38.98;21.15;;;;;;;-2.34;89.33;101384.62;1757723;81;21179;-76
2022/03/15 01:43:42;;;;;;;39.40;20.95;;;;;;;-2.39;89.39;101377.73;1757533;81;21155;-82
2022/03/15 01:46:48;;;;;;;32.95;20.40;;;;;;;-2.45;89.55;101380.19;1757279;81;21763;-76
2022/03/15 01:49:49;;;;;;;35.38;19.67;;;;;;;-2.50;89.78;101370.14;1757912;81;21157;-75
2022/03/15 01:52:55;;;;;;;29.25;18.98;;;;;;;-2.54;90.00;101369.00;1758035;81;21750;-82
2022/03/15 01:56:02;;;;;;;31.35;17.37;;;;;;;-2.59;90.21;101366.08;1759008;81;21193;-76
2022/03/15 01:59:10;;;;;;;34.80;20.08;;;;;;;-2.60;90.41;101373.69;1759257;81;21726;-83
2022/03/15 02:02:16;;;;;;;35.23;18.73;;;;;;;-2.63;90.72;101365.81;1758886;81;21765;-82
2022/03/15 02:05:22;;;;;;;30.75;19.52;;;;;;;-2.66;90.95;101361.91;1758962;80;21167;-83
2022/03/15 02:08:28;;;;;;;36.35;19.62;;;;;;;-2.67;91.09;101362.86;1754435;81;21194;-76
2022/03/15 02:11:35;;;;;;;33.23;19.02;;;;;;;-2.69;91.24;101354.47;1754175;81;21697;-76
2022/03/15 02:14:42;;;;;;;35.33;21.57;;;;;;;-2.71;91.44;101353.21;1755353;81;21151;-83
2022/03/15 02:17:48;;;;;;;29.80;16.85;;;;;;;-2.73;91.45;101351.08;1754285;81;21233;-76
2022/03/15 02:20:55;;;;;;;35.73;19.95;;;;;;;-2.74;91.44;101356.01;1759144;81;21160;-76
2022/03/15 02:24:01;;;;;;;32.78;19.82;;;;;;;-2.75;91.45;101353.41;1730427;83;21216;-83
2022/03/15 02:27:07;;;;;;;30.30;19.12;;;;;;;-2.79;91.43;101354.47;1763442;81;21231;-82
2022/03/15 02:30:14;;;;;;;29.52;19.70;;;;;;;-2.82;91.44;101352.81;1784144;80;21195;-78
2022/03/15 02:33:19;;;;;;;35.75;20.40;;;;;;;-2.84;91.56;101347.50;1790983;80;21177;-76
2022/03/15 02:36:24;;;;;;;38.80;19.95;;;;;;;-2.87;91.60;101348.99;1790887;80;21168;-83
2022/03/15 02:39:31;;;;;;;41.58;22.95;;;;;;;-2.87;91.70;101353.01;1788206;80;21189;-83
2022/03/15 02:42:37;;;;;;;38.00;18.45;;;;;;;-2.89;91.75;101346.83;1790876;80;21176;-76
2022/03/15 02:45:42;;;;;;;32.90;19.00;;;;;;;-2.89;91.78;101345.49;1790914;80;21161;-83
2022/03/15 02:48:49;;;;;;;41.10;19.73;;;;;;;-2.90;91.84;101347.78;1789856;80;21200;-82
2022/03/15 02:51:54;;;;;;;34.90;18.62;;;;;;;-2.92;91.83;101350.97;1790889;80;21714;-76
2022/03/15 02:54:59;;;;;;;35.60;18.15;;;;;;;-2.92;91.92;101347.42;1791054;80;21188;-83
2022/03/15 02:58:09;;;;;;;34.18;19.17;;;;;;;-2.94;91.97;101346.16;1788270;80;21208;-82
2022/03/15 03:01:13;;;;;;;39.95;21.62;;;;;;;-2.95;92.04;101346.23;1790903;80;21129;-76
2022/03/15 03:04:21;;;;;;;45.80;20.12;;;;;;;-2.96;92.10;101340.02;1790976;80;21220;-76
2022/03/15 03:07:27;;;;;;;33.18;19.62;;;;;;;-2.95;92.10;101344.90;1790193;80;21195;-76
2022/03/15 03:10:33;;;;;;;33.50;19.45;;;;;;;-2.96;92.12;101348.05;1788061;80;21709;-82
2022/03/15 03:13:40;;;;;;;38.60;21.50;;;;;;;-2.97;92.06;101343.60;1790761;80;21141;-77
2022/03/15 03:16:46;;;;;;;34.43;18.45;;;;;;;-3.00;91.99;101346.43;1790626;80;21196;-76
2022/03/15 03:19:47;;;;;;;34.40;20.15;;;;;;;-3.04;91.96;101348.83;1790800;80;21184;-82
2022/03/15 03:22:41;;;;;;;37.05;21.12;;;;;;;-3.09;91.99;101346.81;1790870;80;21180;-76
2022/03/15 03:25:46;;;;;;;30.48;16.77;;;;;;;-3.12;92.08;101345.59;1788328;80;21160;-81
2022/03/15 03:28:54;;;;;;;34.10;18.27;;;;;;;-3.15;92.20;101343.93;1790949;80;21172;-82
2022/03/15 03:31:59;;;;;;;38.78;20.57;;;;;;;-3.16;92.24;101349.33;1762908;81;21765;-76
2022/03/15 03:35:06;;;;;;;33.78;19.35;;;;;;;-3.21;92.22;101350.85;1762915;81;21196;-76
2022/03/15 03:38:13;;;;;;;33.85;20.05;;;;;;;-3.22;92.21;101349.59;1762969;81;21366;-82
2022/03/15 03:41:18;;;;;;;36.50;19.37;;;;;;;-3.29;92.27;101350.32;1762934;81;21164;-76
2022/03/15 03:44:25;;;;;;;31.33;18.62;;;;;;;-3.30;92.40;101347.69;1762858;81;21164;-76
2022/03/15 03:47:31;;;;;;;30.10;17.23;;;;;;;-3.31;92.49;101355.31;1763008;81;21231;-83
2022/03/15 03:50:36;;;;;;;28.23;17.90;;;;;;;-3.32;92.56;101361.61;1762907;81;21232;-76
2022/03/15 03:53:41;;;;;;;29.30;17.32;;;;;;;-3.32;92.64;101346.89;1762922;81;21769;-76
2022/03/15 03:56:47;;;;;;;33.63;18.23;;;;;;;-3.30;92.73;101350.36;1762939;81;21235;-81
2022/03/15 03:59:53;;;;;;;27.27;17.07;;;;;;;-3.30;92.79;101353.04;1762924;81;21163;-76
2022/03/15 04:03:05;;;;;;;33.23;19.82;;;;;;;-3.29;92.80;101342.73;1762979;81;21239;-82
2022/03/15 04:06:06;;;;;;;31.77;18.92;;;;;;;-3.28;92.84;101352.06;1762886;81;21163;-76
2022/03/15 04:09:13;;;;;;;32.67;17.98;;;;;;;-3.25;92.88;101352.37;1762947;81;21195;-82
2022/03/15 04:12:21;;;;;;;28.02;17.25;;;;;;;-3.22;92.88;101349.59;1762738;81;21749;-76
2022/03/15 04:15:27;;;;;;;28.83;15.95;;;;;;;-3.21;92.81;101344.16;1761546;81;21176;-82
2022/03/15 04:18:34;;;;;;;29.15;15.75;;;;;;;-3.18;92.75;101339.16;1762985;81;21184;-82
2022/03/15 04:21:40;;;;;;;31.95;18.35;;;;;;;-3.16;92.73;101327.45;1763029;81;21749;-83
2022/03/15 04:24:46;;;;;;;29.45;15.78;;;;;;;-3.12;92.76;101329.53;1762969;81;21160;-82
2022/03/15 04:27:56;;;;;;;29.20;16.82;;;;;;;-3.06;92.85;101335.09;1762881;81;21208;-83
2022/03/15 04:30:59;;;;;;;29.55;17.80;;;;;;;-2.99;92.95;101326.75;1774398;80;21682;-82
2022/03/15 04:34:05;;;;;;;28.73;16.25;;;;;;;-2.93;92.97;101322.93;1794254;80;21701;-76
2022/03/15 04:37:10;;;;;;;32.58;16.73;;;;;;;-2.88;93.01;101311.08;1795894;80;21227;-76
2022/03/15 04:40:17;;;;;;;27.52;15.72;;;;;;;-2.79;93.01;101308.95;1795951;80;21171;-76
2022/03/15 04:43:21;;;;;;;28.30;16.70;;;;;;;-2.71;92.97;101305.47;1766152;81;21186;-80
2022/03/15 04:46:27;;;;;;;29.70;16.37;;;;;;;-2.61;92.81;101313.50;1766189;81;21172;-82
2022/03/15 04:49:34;;;;;;;26.33;15.75;;;;;;;-2.51;92.61;101305.45;1765565;81;21184;-82
2022/03/15 04:52:40;;;;;;;34.55;16.87;;;;;;;-2.41;92.34;101304.09;1765303;81;21204;-80
2022/03/15 04:55:48;;;;;;;33.90;18.35;;;;;;;-2.30;92.05;101300.08;1768934;81;21192;-76
2022/03/15 04:58:54;;;;;;;31.15;17.10;;;;;;;-2.21;91.66;101295.61;1732829;83;21486;-83
2022/03/15 05:02:00;;;;;;;31.82;17.82;;;;;;;-2.12;91.33;101297.86;1768668;81;21192;-77
2022/03/15 05:05:07;;;;;;;27.22;16.02;;;;;;;-2.01;91.18;101297.38;1734518;82;21208;-76
2022/03/15 05:08:14;;;;;;;26.00;16.00;;;;;;;-1.92;90.69;101289.77;1767709;81;21174;-76
2022/03/15 05:11:21;;;;;;;29.60;17.05;;;;;;;-1.85;90.25;101299.25;1764729;81;21169;-76
2022/03/15 05:14:30;;;;;;;29.70;17.95;;;;;;;-1.77;89.89;101298.03;1766121;81;21156;-76
2022/03/15 05:17:40;;;;;;;32.55;18.42;;;;;;;-1.67;89.64;101297.98;1765144;81;21244;-83
2022/03/15 05:20:45;;;;;;;28.15;16.60;;;;;;;-1.59;89.37;101294.45;1764878;81;21200;-83
2022/03/15 05:23:53;;;;;;;29.85;17.80;;;;;;;-1.49;89.11;101297.55;1757527;80;21152;-75
2022/03/15 05:26:58;;;;;;;32.20;15.45;;;;;;;-1.40;88.92;101288.58;1733999;82;21207;-83
2022/03/15 05:30:04;;;;;;;24.95;16.35;;;;;;;-1.27;88.45;101291.53;1736859;82;21227;-82
2022/03/15 05:33:03;;;;;;;26.68;16.00;;;;;;;-1.12;87.97;101297.94;1720588;81;21224;-76
2022/03/15 05:36:09;;;;;;;28.95;17.48;;;;;;;-0.99;87.42;101293.66;1706817;84;21919;-76
2022/03/15 05:39:16;;;;;;;28.98;17.23;;;;;;;-0.84;87.10;101300.08;1721504;82;21195;-83
2022/03/15 05:42:23;;;;;;;27.15;16.55;;;;;;;-0.71;86.70;101289.55;1736093;82;21239;-82
2022/03/15 05:45:28;;;;;;;25.12;17.00;;;;;;;-0.60;86.04;101293.89;1736777;82;21216;-76
2022/03/15 05:48:35;;;;;;;26.77;16.60;;;;;;;-0.49;85.30;101291.50;1736639;82;21148;-76
2022/03/15 05:51:41;;;;;;;28.32;17.35;;;;;;;-0.39;84.60;101296.77;1735961;82;21192;-76
2022/03/15 05:54:48;;;;;;;29.35;16.65;;;;;;;-0.29;84.39;101298.48;1735242;82;21169;-77
2022/03/15 05:57:54;;;;;;;29.72;16.27;;;;;;;-0.17;84.30;101297.83;1733465;83;21254;-75
2022/03/15 06:00:59;;;;;;;27.87;15.72;;;;;;;-0.05;83.07;101298.52;1734283;83;21164;-77
2022/03/15 06:04:05;;;;;;;29.63;17.37;;;;;;;0.08;82.32;101299.16;1734145;82;21204;-82
2022/03/15 06:07:09;;;;;;;25.40;16.05;;;;;;;0.21;82.38;101301.09;1726916;82;21184;-75
2022/03/15 06:10:17;;;;;;;28.80;16.70;;;;;;;0.35;81.93;101304.34;1758782;80;21165;-76
2022/03/15 06:13:24;;;;;;;25.57;16.25;;;;;;;0.49;81.31;101302.22;1753573;82;21194;-76
2022/03/15 06:16:31;;;;;;;27.45;16.73;;;;;;;0.61;80.90;101304.22;1766602;80;21194;-76
2022/03/15 06:19:38;;;;;;;33.88;16.30;;;;;;;0.73;80.11;101303.97;1765033;80;21151;-76
2022/03/15 06:22:44;;;;;;;22.75;15.00;;;;;;;0.84;79.75;101307.38;1770297;80;21195;-76
2022/03/15 06:25:51;;;;;;;30.95;16.90;;;;;;;0.94;79.34;101303.18;1767665;80;21136;-79
2022/03/15 06:28:58;;;;;;;30.10;17.05;;;;;;;1.01;78.67;101296.48;1780461;80;21176;-76
2022/03/15 06:32:06;;;;;;;31.97;17.50;;;;;;;1.11;77.92;101303.55;1761544;79;21706;-82
2022/03/15 06:35:16;;;;;;;27.27;16.97;;;;;;;1.17;77.00;101304.03;1756734;80;21203;-82
2022/03/15 06:38:22;;;;;;;27.65;15.88;;;;;;;1.23;77.70;101300.12;1756400;80;21709;-76
2022/03/15 06:41:30;;;;;;;28.57;16.57;;;;;;;1.33;77.02;101299.09;1751050;80;21669;-83
2022/03/15 06:44:37;;;;;;;34.70;17.62;;;;;;;1.43;77.59;101304.30;1755923;81;21721;-76
2022/03/15 06:47:43;;;;;;;27.27;16.52;;;;;;;1.54;76.43;101294.58;1760892;80;21204;-83
2022/03/15 06:50:52;;;;;;;33.42;17.95;;;;;;;1.63;76.38;101297.19;1758439;81;21719;-76
2022/03/15 06:53:58;;;;;;;30.80;16.67;;;;;;;1.74;76.83;101301.45;1759508;81;21156;-75
2022/03/15 06:57:03;;;;;;;30.08;17.50;;;;;;;1.86;76.31;101293.06;1757779;81;21176;-76
2022/03/15 07:00:15;;;;;;;27.93;16.70;;;;;;;1.98;74.95;101291.44;1755112;81;21171;-83
2022/03/15 07:03:20;;;;;;;31.73;18.82;;;;;;;2.09;75.41;101283.99;1735145;81;21187;-76
2022/03/15 07:06:26;;;;;;;31.70;17.32;;;;;;;2.24;74.14;101285.70;1753079;81;21191;-76
2022/03/15 07:09:31;;;;;;;33.53;18.42;;;;;;;2.36;73.62;101287.62;1754488;81;21132;-82
2022/03/15 07:12:37;;;;;;;27.62;16.90;;;;;;;2.50;73.67;101287.58;1731509;82;21181;-77
2022/03/15 07:15:43;;;;;;;34.95;18.27;;;;;;;2.68;73.24;101290.91;1715479;82;21144;-83
2022/03/15 07:18:49;;;;;;;28.77;17.92;;;;;;;2.86;72.79;101285.22;1705961;82;21738;-83
2022/03/15 07:21:56;;;;;;;29.95;18.32;;;;;;;2.98;71.85;101293.87;1749084;81;21176;-76
2022/03/15 07:24:55;;;;;;;31.52;17.00;;;;;;;3.01;70.93;101288.23;1750184;81;21157;-83
2022/03/15 07:28:02;;;;;;;31.00;16.70;;;;;;;3.01;70.92;101285.07;1756173;81;21204;-76
2022/03/15 07:31:07;;;;;;;27.67;17.20;;;;;;;3.01;71.38;101277.42;1752785;81;21184;-76
2022/03/15 07:34:13;;;;;;;31.23;17.62;;;;;;;3.00;71.53;101273.86;1702950;83;21191;-82
2022/03/15 07:37:20;;;;;;;29.07;17.37;;;;;;;2.94;72.20;101274.77;1728296;81;21178;-82
2022/03/15 07:40:27;;;;;;;26.62;16.62;;;;;;;2.88;71.91;101270.65;1753728;81;21155;-82
2022/03/15 07:43:33;;;;;;;30.88;17.25;;;;;;;2.85;71.99;101265.44;1753778;81;21172;-76
2022/03/15 07:46:40;;;;;;;25.77;16.85;;;;;;;2.82;72.68;101271.04;1756155;81;21177;-82
2022/03/15 07:49:48;;;;;;;26.65;16.32;;;;;;;2.79;71.25;101264.52;1754678;81;21179;-76
2022/03/15 07:52:54;;;;;;;28.62;17.20;;;;;;;2.83;72.43;101261.13;1729215;81;21267;-81
2022/03/15 07:56:01;;;;;;;28.12;16.27;;;;;;;2.94;72.52;101248.61;1711394;81;21179;-77
2022/03/15 07:59:05;;;;;;;27.73;17.00;;;;;;;3.08;72.63;101253.93;1735598;81;21533;-76
2022/03/15 08:02:12;;;;;;;26.23;16.02;;;;;;;3.27;70.63;101246.77;1692546;82;21526;-82
2022/03/15 08:05:20;;;;;;;25.43;15.95;;;;;;;3.44;70.18;101252.86;1734792;81;21175;-77
2022/03/15 08:08:26;;;;;;;26.52;16.02;;;;;;;3.58;70.32;101252.75;1729549;82;21207;-81
2022/03/15 08:11:35;;;;;;;26.62;16.00;;;;;;;3.72;70.91;101243.66;1699864;84;21860;-83
2022/03/15 08:14:42;;;;;;;29.87;15.95;;;;;;;3.84;70.90;101244.97;1726069;81;21720;-82
2022/03/15 08:17:50;;;;;;;29.98;15.60;;;;;;;3.99;69.64;101236.71;1728013;81;21150;-82
2022/03/15 08:20:59;;;;;;;22.02;13.98;;;;;;;4.13;69.68;101247.40;1730944;82;21132;-81
2022/03/15 08:24:06;;;;;;;24.55;14.68;;;;;;;4.25;69.01;101233.47;1696481;84;21725;-82
2022/03/15 08:27:13;;;;;;;23.30;13.80;;;;;;;4.31;68.53;101233.00;1732177;82;21211;-82
2022/03/15 08:30:20;;;;;;;25.35;14.63;;;;;;;4.43;67.41;101242.08;1698535;84;21176;-76
2022/03/15 08:33:27;;;;;;;23.20;14.38;;;;;;;4.52;66.27;101235.97;1731079;82;21167;-76
2022/03/15 08:36:36;;;;;;;20.40;13.43;;;;;;;4.64;66.72;101228.75;1726493;81;21205;-82
2022/03/15 08:39:44;;;;;;;24.35;14.65;;;;;;;4.75;63.39;101239.17;1754219;81;21809;-76
2022/03/15 08:42:51;;;;;;;27.40;15.03;;;;;;;4.80;63.50;101226.63;1747900;81;21620;-82
2022/03/15 08:45:57;;;;;;;23.92;14.28;;;;;;;4.87;62.98;101229.23;1754295;81;21781;-82
2022/03/15 08:49:03;;;;;;;32.05;16.60;;;;;;;4.95;61.97;101225.94;1748478;81;21153;-76
2022/03/15 08:52:14;;;;;;;27.10;15.98;;;;;;;5.03;62.96;101223.48;1752995;81;21191;-80
2022/03/15 08:55:26;;;;;;;29.67;18.12;;;;;;;5.08;61.99;101230.77;1746502;81;21522;-83
2022/03/15 08:58:27;;;;;;;32.50;16.95;;;;;;;5.12;62.21;101218.70;1738151;81;21195;-82
2022/03/15 09:01:33;;;;;;;25.60;15.00;;;;;;;5.20;61.09;101219.47;1741681;81;21219;-76
2022/03/15 09:04:40;;;;;;;22.45;12.68;;;;;;;5.26;59.23;101238.83;1749136;81;21164;-82
2022/03/15 09:07:53;;;;;;;20.68;13.15;;;;;;;5.31;59.34;101233.05;1755085;81;21584;-77
2022/03/15 09:10:54;;;;;;;23.90;14.38;;;;;;;5.39;58.95;101226.04;1759456;79;21728;-82
2022/03/15 09:14:00;;;;;;;27.75;15.05;;;;;;;5.46;58.47;101229.62;1737889;81;21215;-77
2022/03/15 09:17:06;;;;;;;23.65;14.20;;;;;;;5.47;58.75;101235.44;1744782;81;21246;-82
2022/03/15 09:20:12;;;;;;;29.50;16.57;;;;;;;5.46;59.54;101229.62;1735393;81;21730;-77
2022/03/15 09:23:18;;;;;;;29.65;17.90;;;;;;;5.46;59.66;101218.77;1734600;81;21216;-82
2022/03/15 09:26:24;;;;;;;35.55;20.30;;;;;;;5.51;61.56;101222.01;1756451;80;21176;-76
2022/03/15 09:29:29;;;;;;;50.12;24.10;;;;;;;5.58;58.02;101227.30;1750704;81;21161;-76
2022/03/15 09:32:35;;;;;;;45.12;23.47;;;;;;;5.52;57.98;101220.52;1750005;81;21640;-77
2022/03/15 09:35:40;;;;;;;51.15;25.17;;;;;;;5.52;58.54;101240.87;1752989;81;21124;-82
2022/03/15 09:38:46;;;;;;;51.65;27.87;;;;;;;5.54;59.03;101223.96;1752430;80;21748;-76
2022/03/15 09:41:51;;;;;;;42.17;22.82;;;;;;;5.61;59.89;101214.86;1712707;83;21256;-76
2022/03/15 09:44:58;;;;;;;39.88;22.58;;;;;;;5.71;59.18;101228.55;1752453;81;21152;-81
2022/03/15 09:48:06;;;;;;;41.98;22.75;;;;;;;5.77;56.42;101223.48;1717780;81;21192;-76
2022/03/15 09:51:11;;;;;;;44.85;21.27;;;;;;;5.79;57.82;101216.09;1758522;80;21167;-83
2022/03/15 09:54:22;;;;;;;34.53;19.27;;;;;;;5.86;57.34;101217.81;1751427;81;21188;-83
2022/03/15 09:57:30;;;;;;;18.15;9.88;;;;;;;5.93;58.18;101219.56;1752043;80;21188;-76
2022/03/15 10:00:37;;;;;;;18.05;10.93;;;;;;;5.99;56.47;101216.37;1753265;81;21225;-76
2022/03/15 10:03:43;;;;;;;21.17;10.63;;;;;;;6.04;53.69;101217.72;1782211;80;21145;-76
2022/03/15 10:06:49;;;;;;;19.45;9.78;;;;;;;6.05;54.43;101213.14;1744948;80;21188;-82
2022/03/15 10:09:54;;;;;;;17.95;9.58;;;;;;;6.07;54.16;101213.87;1754537;80;21153;-83
2022/03/15 10:13:02;;;;;;;17.42;8.95;;;;;;;6.14;55.52;101211.03;1755831;80;21774;-76
2022/03/15 10:16:09;;;;;;;11.43;8.00;;;;;;;6.25;55.38;101215.58;1735920;80;21165;-83
2022/03/15 10:19:17;;;;;;;22.42;9.15;;;;;;;6.32;53.77;101207.30;1738030;80;21515;-76
2022/03/15 10:22:25;;;;;;;17.80;10.20;;;;;;;6.38;53.15;101209.50;1756704;80;21200;-77
2022/03/15 10:25:32;;;;;;;18.60;9.33;;;;;;;6.43;53.37;101211.84;1749926;80;21209;-82
2022/03/15 10:28:39;;;;;;;15.98;9.48;;;;;;;6.51;53.07;101216.14;1750450;80;21523;-77
2022/03/15 10:31:45;;;;;;;19.40;10.43;;;;;;;6.50;52.40;101201.70;1758949;80;21172;-82
2022/03/15 10:34:52;;;;;;;16.25;8.70;;;;;;;6.48;53.48;101205.02;1750427;80;21200;-76
2022/03/15 10:37:57;;;;;;;19.45;9.43;;;;;;;6.48;55.56;101209.59;1750394;80;21185;-82
2022/03/15 10:41:03;;;;;;;21.68;9.00;;;;;;;6.53;54.43;101212.79;1778895;79;21191;-76
2022/03/15 10:44:09;;;;;;;14.95;9.43;;;;;;;6.52;53.51;101206.49;1785734;78;21569;-76
2022/03/15 10:47:21;;;;;;;18.77;9.68;;;;;;;6.50;53.75;101208.49;1754321;80;21176;-83
2022/03/15 10:50:33;;;;;;;19.75;8.33;;;;;;;6.50;54.72;101208.99;1755630;80;21176;-83
2022/03/15 10:53:47;;;;;;;19.90;8.80;;;;;;;6.50;55.55;101202.20;1751990;80;21259;-77
2022/03/15 10:57:05;;;;;;;15.60;9.25;;;;;;;6.53;54.32;101208.72;1751166;80;21184;-77
2022/03/15 11:00:15;;;;;;;15.55;9.73;;;;;;;6.56;54.70;101199.81;1757140;80;21177;-83
2022/03/15 11:03:25;;;;;;;13.62;8.95;;;;;;;6.59;53.99;101215.02;1747270;80;21724;-76
2022/03/15 11:06:39;;;;;;;16.65;10.05;;;;;;;6.60;54.61;101192.27;1746708;80;21210;-77
2022/03/15 11:09:46;;;;;;;18.85;9.25;;;;;;;6.62;53.40;101221.53;1745290;80;21188;-77
2022/03/15 11:13:12;;;;;;;16.80;9.18;;;;;;;6.60;52.92;101201.28;1757002;81;21200;-76
2022/03/15 11:16:18;;;;;;;19.35;9.73;;;;;;;6.66;53.27;101203.98;1757510;80;21670;-83
2022/03/15 11:19:18;;;;;;;14.45;8.88;;;;;;;6.76;53.84;101198.12;1757358;80;21714;-76
2022/03/15 11:22:12;;;;;;;16.20;9.05;;;;;;;6.89;53.41;101196.09;1757418;80;21180;-77
2022/03/15 11:25:21;;;;;;;14.07;8.50;;;;;;;6.97;53.60;101198.17;1718725;81;21511;-83
2022/03/15 11:28:37;;;;;;;17.10;9.27;;;;;;;6.98;53.70;101203.97;1753033;81;21176;-83
2022/03/15 11:31:42;;;;;;;12.93;7.35;;;;;;;6.94;54.28;101201.14;1748933;81;21217;-82
2022/03/15 11:34:49;;;;;;;13.78;8.03;;;;;;;6.95;53.96;101200.64;1746367;80;21170;-76
2022/03/15 11:37:55;;;;;;;16.27;9.03;;;;;;;6.90;52.50;101201.89;1742805;80;21164;-76
2022/03/15 11:41:01;;;;;;;13.60;8.35;;;;;;;6.85;53.72;101209.58;1725290;81;21180;-76
2022/03/15 11:44:26;;;;;;;15.65;10.10;;;;;;;6.78;53.93;101200.23;1703171;83;21223;-76
2022/03/15 11:47:46;;;;;;;17.40;10.03;;;;;;;6.78;57.24;101208.39;1704533;83;21234;-76
2022/03/15 11:51:31;;;;;;;16.70;8.98;;;;;;;6.64;56.89;101197.82;1727121;83;21313;-76
2022/03/15 11:54:47;;;;;;;17.80;9.68;;;;;;;6.44;57.79;101205.41;1709155;82;21701;-83
2022/03/15 11:57:59;;;;;;;18.55;9.05;;;;;;;6.26;57.68;101200.53;1711574;83;21211;-76
2022/03/15 12:01:19;;;;;;;23.55;10.30;;;;;;;6.21;58.83;101208.20;1719694;82;21192;-76
2022/03/15 12:04:30;;;;;;;14.38;7.37;;;;;;;6.28;57.84;101197.17;1717450;83;21234;-83
2022/03/15 12:07:45;;;;;;;11.83;7.12;;;;;;;6.35;56.22;101196.16;1721329;82;21728;-77
2022/03/15 12:11:01;;;;;;;16.15;9.35;;;;;;;6.43;55.70;101207.76;1722191;82;21143;-76
2022/03/15 12:14:22;;;;;;;17.80;10.58;;;;;;;6.51;57.28;101197.12;1687631;84;21250;-84
2022/03/15 12:17:30;;;;;;;17.02;10.80;;;;;;;6.43;58.69;101210.48;1688846;84;21228;-83
2022/03/15 12:20:35;;;;;;;17.85;11.08;;;;;;;6.26;58.89;101208.67;1720519;82;21179;-76
2022/03/15 12:23:52;;;;;;;18.37;11.60;;;;;;;6.05;58.88;101210.42;1705567;82;21175;-83
2022/03/15 12:27:09;;;;;;;16.17;10.18;;;;;;;5.81;58.87;101224.97;1704906;84;21234;-77
2022/03/15 12:30:18;;;;;;;15.80;10.35;;;;;;;5.71;57.58;101214.48;1705459;84;21171;-77
2022/03/15 12:33:26;;;;;;;24.02;12.63;;;;;;;5.74;58.23;101216.97;1730405;82;21797;-83
2022/03/15 12:36:32;;;;;;;19.62;10.23;;;;;;;5.84;59.25;101230.16;1664262;84;21308;-83
2022/03/15 12:39:39;;;;;;;15.78;10.25;;;;;;;5.89;60.96;101232.52;1699747;81;21229;-83
2022/03/15 12:42:46;;;;;;;21.27;11.28;;;;;;;5.80;62.44;101230.53;1738803;81;21848;-83
2022/03/15 12:45:54;;;;;;;21.10;12.68;;;;;;;5.67;62.71;101226.58;1714382;83;21576;-84
2022/03/15 12:49:00;;;;;;;20.65;13.15;;;;;;;5.55;63.79;101239.75;1740744;81;21136;-76
2022/03/15 12:52:08;;;;;;;19.10;13.45;;;;;;;5.28;64.73;101247.73;1733306;82;21243;-83
2022/03/15 12:55:23;;;;;;;24.45;14.45;;;;;;;5.05;65.61;101238.66;1696983;82;21138;-82
2022/03/15 12:58:29;;;;;;;22.77;13.32;;;;;;;4.88;66.33;101245.36;1767385;81;21926;-83
2022/03/15 13:01:37;;;;;;;24.70;13.78;;;;;;;4.81;66.81;101247.33;1727253;83;21203;-76
2022/03/15 13:04:44;;;;;;;20.35;12.55;;;;;;;4.78;65.94;101253.83;1732873;82;21159;-83
2022/03/15 13:07:51;;;;;;;21.70;12.73;;;;;;;4.75;65.28;101245.95;1751245;81;21226;-76
2022/03/15 13:10:58;;;;;;;21.82;13.62;;;;;;;4.77;64.15;101252.11;1768272;81;21168;-83
2022/03/15 13:14:04;;;;;;;19.32;12.82;;;;;;;4.79;63.59;101251.48;1733576;82;21216;-76
2022/03/15 13:17:09;;;;;;;22.20;13.93;;;;;;;4.81;64.09;101261.73;1768583;81;21206;-83
2022/03/15 13:20:17;;;;;;;17.35;11.10;;;;;;;4.84;64.20;101253.35;1711838;83;21234;-76
2022/03/15 13:23:24;;;;;;;16.67;11.28;;;;;;;4.86;62.45;101269.52;1737194;82;21760;-78
2022/03/15 13:26:32;;;;;;;19.87;11.28;;;;;;;4.76;60.83;101272.06;1704929;84;21816;-83
2022/03/15 13:29:39;;;;;;;17.50;10.98;;;;;;;4.60;61.48;101267.41;1721137;81;21755;-84
2022/03/15 13:32:46;;;;;;;28.10;13.40;;;;;;;4.55;62.75;101264.17;1714526;83;21210;-76
2022/03/15 13:35:56;;;;;;;19.57;10.00;;;;;;;4.59;61.77;101265.68;1755573;81;21166;-77
2022/03/15 13:39:17;;;;;;;16.70;9.55;;;;;;;4.63;60.64;101273.96;1750562;81;21151;-82
2022/03/15 13:42:23;;;;;;;15.32;9.35;;;;;;;4.58;59.12;101276.16;1713427;83;21229;-84
2022/03/15 13:45:29;;;;;;;15.70;9.38;;;;;;;4.51;59.70;101279.78;1733072;83;21196;-77
2022/03/15 13:48:39;;;;;;;14.75;9.10;;;;;;;4.41;60.10;101286.01;1730501;83;21612;-83
2022/03/15 13:51:45;;;;;;;15.25;8.90;;;;;;;4.26;59.50;101296.12;1792861;80;21227;-84
2022/03/15 13:55:10;;;;;;;16.02;9.53;;;;;;;4.16;60.43;101286.95;1753296;81;21155;-77
2022/03/15 13:58:09;;;;;;;14.85;8.93;;;;;;;4.05;60.25;101302.13;1727292;83;21764;-76
2022/03/15 14:01:15;;;;;;;18.75;9.00;;;;;;;3.92;60.40;101292.28;1733021;83;21171;-83
2022/03/15 14:04:23;;;;;;;12.70;8.70;;;;;;;3.85;61.24;101299.47;1696882;84;21845;-76
2022/03/15 14:07:30;;;;;;;15.10;9.88;;;;;;;3.85;61.33;101306.73;1733847;83;21210;-84
2022/03/15 14:10:28;;;;;;;23.75;8.90;;;;;;;3.88;61.41;101288.93;1697057;84;21754;-84
2022/03/15 14:13:28;;;;;;;12.45;8.13;;;;;;;3.90;61.94;101311.81;1709138;83;21220;-77
2022/03/15 14:16:16;;;;;;;11.43;7.12;;;;;;;3.85;59.84;101310.79;1697328;84;22195;-84